Hampton Beach, New Hampshire
Current Conditions -  °F | °C
As of 6:28 PM on Wednesday 22 Oct 2014 (Local Time) from KPSM Reporting Station
Light Rain Light Rain  
Wind Chill: 40°   Ceiling: 400
Heat Index: 48°   Visibility: 2mi
Dew Point: 46°   Wind: 24mph
Humidity: 93%   Direction: 20°NNE
Pressure: 29.96"   Gusts: 32mph
Location:  42.9284°N, 70.8566°W
Report Text: KPSM 222228Z 02021G28KT 2SM -RA BR OVC004 09/08 A2996 RMK AO2A
Loading
Personal Weather Stations






























Interactive Weather Map New forecast layout! Learn more

10-Day Weather Forecast

Advertisements
Track Severe Weather on mobile